Time;durP1;ratioP1;P1;durP2;ratioP2;P2;SDS_P1;SDS_P2;PMS_P1;PMS_P2;Temp;Humidity;BMP_temperature;BMP_pressure;BME280_temperature;BME280_humidity;BME280_pressure;Samples;Min_cycle;Max_cycle;Signal;HPM_P1;HPM_P2
2022/10/21 00:00:58;;;;;;;19.27;9.13;;;1.70;99.90;;;;;;4355623;28;659575;-67
2022/10/21 00:03:45;;;;;;;21.53;9.37;;;1.70;99.90;;;;;;4347761;28;658573;-68
2022/10/21 00:06:32;;;;;;;28.17;9.57;;;1.70;99.90;;;;;;4372812;28;659334;-68
2022/10/21 00:09:20;;;;;;;21.37;9.03;;;1.80;99.90;;;;;;4374402;28;658728;-68
2022/10/21 00:12:07;;;;;;;27.08;10.23;;;1.70;99.90;;;;;;4378548;28;659470;-67
2022/10/21 00:14:54;;;;;;;24.97;10.47;;;1.80;99.90;;;;;;4371002;28;659582;-68
2022/10/21 00:17:43;;;;;;;22.37;10.20;;;1.80;99.90;;;;;;4353277;28;659753;-67
2022/10/21 00:20:30;;;;;;;22.97;10.07;;;1.80;99.90;;;;;;4353641;28;660371;-67
2022/10/21 00:23:17;;;;;;;20.60;9.33;;;1.80;99.90;;;;;;4371211;28;661099;-68
2022/10/21 00:26:05;;;;;;;25.23;9.80;;;1.90;99.90;;;;;;4370240;28;658853;-68
2022/10/21 00:28:55;;;;;;;26.63;10.63;;;2.00;99.90;;;;;;4347181;28;660168;-67
2022/10/21 00:31:42;;;;;;;24.00;10.00;;;2.10;99.90;;;;;;4346608;28;660042;-67
2022/10/21 00:34:31;;;;;;;20.90;10.25;;;2.20;99.90;;;;;;4368849;28;659775;-67
2022/10/21 00:37:18;;;;;;;24.43;9.53;;;2.30;99.90;;;;;;4348884;28;660396;-67
2022/10/21 00:40:06;;;;;;;20.23;9.70;;;2.40;99.90;;;;;;4351494;28;659115;-67
2022/10/21 00:42:53;;;;;;;20.33;9.30;;;2.50;99.90;;;;;;4368008;28;659062;-68
2022/10/21 00:45:41;;;;;;;25.73;10.40;;;2.50;99.90;;;;;;4352345;28;659055;-68
2022/10/21 00:48:31;;;;;;;28.20;10.50;;;2.20;99.90;;;;;;4376310;28;660493;-68
2022/10/21 00:51:20;;;;;;;23.17;10.07;;;2.20;99.90;;;;;;4345766;28;661200;-67
2022/10/21 00:54:07;;;;;;;24.20;10.30;;;2.20;99.90;;;;;;4348039;28;660609;-67
2022/10/21 00:56:55;;;;;;;27.90;10.83;;;2.30;99.90;;;;;;4367258;28;659837;-68
2022/10/21 00:59:46;;;;;;;21.33;10.23;;;2.30;99.90;;;;;;4346320;28;660863;-68
2022/10/21 01:02:33;;;;;;;21.77;9.80;;;2.30;99.90;;;;;;4349364;28;660414;-67
2022/10/21 01:05:20;;;;;;;22.63;9.93;;;2.30;99.90;;;;;;4347299;28;658607;-68
2022/10/21 01:08:09;;;;;;;26.47;10.23;;;2.30;99.90;;;;;;4365919;28;659913;-68
2022/10/21 01:10:56;;;;;;;19.95;9.93;;;2.30;99.90;;;;;;4350842;28;660440;-68
2022/10/21 01:13:54;;;;;;;26.20;10.47;;;2.30;99.90;;;;;;4371453;28;659712;-68
2022/10/21 01:16:45;;;;;;;26.97;10.63;;;2.30;99.90;;;;;;4324272;28;661350;-68
2022/10/21 01:19:51;;;;;;;23.50;10.53;;;2.20;99.90;;;;;;4349489;28;660263;-68
2022/10/21 01:22:56;;;;;;;20.33;9.73;;;2.20;99.90;;;;;;4349158;28;659532;-68
2022/10/21 01:25:56;;;;;;;28.13;11.05;;;2.20;99.90;;;;;;4346800;28;659121;-68
2022/10/21 01:28:49;;;;;;;28.57;12.50;;;2.20;99.90;;;;;;4353235;28;661344;-68
2022/10/21 01:31:39;;;;;;;30.93;13.53;;;2.10;99.90;;;;;;4351087;28;660874;-68
2022/10/21 01:34:27;;;;;;;36.53;13.93;;;2.10;99.90;;;;;;4343285;28;659661;-68
2022/10/21 01:37:16;;;;;;;25.57;11.57;;;2.00;99.90;;;;;;4364368;28;660394;-68
2022/10/21 01:40:05;;;;;;;23.27;10.47;;;1.90;99.90;;;;;;4346370;28;660964;-68
2022/10/21 01:42:53;;;;;;;29.60;12.13;;;2.00;99.90;;;;;;4347740;28;660534;-68
2022/10/21 01:45:42;;;;;;;30.33;10.98;;;2.00;99.90;;;;;;4351506;28;659821;-68
2022/10/21 01:48:33;;;;;;;23.00;11.13;;;1.90;99.90;;;;;;4366656;28;660039;-68
2022/10/21 01:51:20;;;;;;;24.13;10.45;;;1.90;99.90;;;;;;4348786;28;659703;-68
2022/10/21 01:54:09;;;;;;;26.03;10.27;;;1.80;99.90;;;;;;4372222;28;660054;-68
2022/10/21 01:56:56;;;;;;;25.97;10.37;;;1.80;99.90;;;;;;4349253;28;660610;-68
2022/10/21 01:59:43;;;;;;;19.43;9.27;;;1.80;99.90;;;;;;4374958;28;659484;-68
2022/10/21 02:02:31;;;;;;;22.98;9.90;;;1.80;99.90;;;;;;4353881;28;658379;-68
2022/10/21 02:05:21;;;;;;;22.47;9.67;;;1.70;99.90;;;;;;4368271;28;658726;-68
2022/10/21 02:08:08;;;;;;;24.77;10.03;;;1.70;99.90;;;;;;4351651;28;659704;-68
2022/10/21 02:10:57;;;;;;;22.70;9.87;;;1.60;99.90;;;;;;4346211;28;659427;-67
2022/10/21 02:13:52;;;;;;;25.13;9.73;;;1.60;99.90;;;;;;4364733;28;658633;-67
2022/10/21 02:16:40;;;;;;;20.60;10.57;;;1.50;99.90;;;;;;4342731;28;658783;-67
2022/10/21 02:19:27;;;;;;;21.70;10.50;;;1.50;99.90;;;;;;4351787;28;660237;-68
2022/10/21 02:22:19;;;;;;;25.60;11.57;;;1.40;99.90;;;;;;4369620;28;659224;-68
2022/10/21 02:25:08;;;;;;;25.90;12.53;;;1.40;99.90;;;;;;4349439;28;659868;-67
2022/10/21 02:27:55;;;;;;;19.80;10.00;;;1.40;99.90;;;;;;4358335;28;660142;-68
2022/10/21 02:30:45;;;;;;;28.58;11.40;;;1.40;99.90;;;;;;4370270;28;658927;-68
2022/10/21 02:33:36;;;;;;;21.30;10.33;;;1.30;99.90;;;;;;4342328;28;659805;-68
2022/10/21 02:36:26;;;;;;;25.23;10.90;;;1.20;99.90;;;;;;4346926;28;661456;-68
2022/10/21 02:39:16;;;;;;;22.20;10.43;;;1.30;99.90;;;;;;4344770;28;660455;-68
2022/10/21 02:42:04;;;;;;;22.67;10.27;;;1.30;99.90;;;;;;4345529;28;659837;-68
2022/10/21 02:44:52;;;;;;;24.80;10.13;;;1.30;99.90;;;;;;4351901;28;659728;-67
2022/10/21 02:47:39;;;;;;;25.20;9.80;;;1.20;99.90;;;;;;4373501;28;660103;-68
2022/10/21 02:50:26;;;;;;;22.00;9.27;;;1.20;99.90;;;;;;4350748;28;658363;-68
2022/10/21 02:53:13;;;;;;;22.17;10.18;;;1.10;99.90;;;;;;4367166;28;659457;-68
2022/10/21 02:56:02;;;;;;;19.33;8.63;;;1.10;99.90;;;;;;4346735;28;659740;-67
2022/10/21 02:58:52;;;;;;;25.58;9.85;;;1.00;99.90;;;;;;4367217;28;658697;-67
2022/10/21 03:01:42;;;;;;;22.27;10.50;;;1.00;99.90;;;;;;4348405;28;658451;-67
2022/10/21 03:04:32;;;;;;;17.03;9.13;;;1.00;99.90;;;;;;4345857;28;660286;-68
2022/10/21 03:07:19;;;;;;;23.37;10.10;;;1.00;99.90;;;;;;4343136;28;659920;-67
2022/10/21 03:10:07;;;;;;;20.88;9.80;;;1.00;99.90;;;;;;4342875;28;659747;-68
2022/10/21 03:12:57;;;;;;;19.30;9.83;;;0.80;99.90;;;;;;4365114;28;658724;-67
2022/10/21 03:15:44;;;;;;;19.33;10.50;;;0.70;99.90;;;;;;4347891;28;659307;-67
2022/10/21 03:18:32;;;;;;;20.43;10.30;;;0.70;99.90;;;;;;4348310;28;659534;-68
2022/10/21 03:21:20;;;;;;;20.93;9.90;;;0.70;99.90;;;;;;4362287;28;659843;-67
2022/10/21 03:24:10;;;;;;;22.83;10.63;;;0.70;99.90;;;;;;4371239;28;660175;-68
2022/10/21 03:26:59;;;;;;;25.03;9.97;;;0.70;99.90;;;;;;4345278;28;661027;-67
2022/10/21 03:29:48;;;;;;;29.97;10.77;;;0.70;99.90;;;;;;4347448;28;658528;-67
2022/10/21 03:32:38;;;;;;;21.70;10.98;;;0.60;99.90;;;;;;4350054;28;659783;-68
2022/10/21 03:35:26;;;;;;;22.93;11.77;;;0.60;99.90;;;;;;4350520;28;660266;-67
2022/10/21 03:38:15;;;;;;;29.37;12.43;;;0.50;99.90;;;;;;4366204;28;660392;-67
2022/10/21 03:41:02;;;;;;;25.33;13.73;;;0.50;99.90;;;;;;4349579;28;661029;-67
2022/10/21 03:43:50;;;;;;;24.43;12.40;;;0.50;99.90;;;;;;4368183;28;659647;-67
2022/10/21 03:46:42;;;;;;;31.00;13.00;;;0.50;99.90;;;;;;4371141;28;661735;-67
2022/10/21 03:49:29;;;;;;;29.57;12.80;;;0.50;99.90;;;;;;4343594;28;659853;-67
2022/10/21 03:52:16;;;;;;;25.30;12.57;;;0.40;99.90;;;;;;4347058;28;659726;-67
2022/10/21 03:55:04;;;;;;;33.17;12.67;;;0.40;99.90;;;;;;4366605;28;660790;-67
2022/10/21 03:57:56;;;;;;;29.73;13.07;;;0.40;99.90;;;;;;4342350;28;659798;-68
2022/10/21 04:00:47;;;;;;;25.40;12.30;;;0.50;99.90;;;;;;4346561;28;660509;-67
2022/10/21 04:03:38;;;;;;;31.40;12.97;;;0.50;99.90;;;;;;4340977;28;660085;-67
2022/10/21 04:06:25;;;;;;;27.23;12.23;;;0.50;99.90;;;;;;4327824;28;660482;-68
2022/10/21 04:09:12;;;;;;;25.90;12.23;;;0.50;99.90;;;;;;4369311;28;660939;-67
2022/10/21 04:12:02;;;;;;;24.03;11.23;;;0.60;99.90;;;;;;4359527;28;659794;-67
2022/10/21 04:14:52;;;;;;;25.60;11.87;;;0.50;99.90;;;;;;4342427;28;659454;-67
2022/10/21 04:17:39;;;;;;;22.57;11.53;;;0.60;99.90;;;;;;4345074;28;659561;-68
2022/10/21 04:20:28;;;;;;;25.97;11.43;;;0.50;99.90;;;;;;4340209;28;659070;-68
2022/10/21 04:23:15;;;;;;;26.20;11.70;;;0.50;99.90;;;;;;4351419;28;659808;-67
2022/10/21 04:26:02;;;;;;;28.53;10.83;;;0.60;99.90;;;;;;4365362;28;660811;-67
2022/10/21 04:28:50;;;;;;;30.47;12.33;;;0.60;99.90;;;;;;4362492;28;659640;-67
2022/10/21 04:31:37;;;;;;;25.47;11.27;;;0.60;99.90;;;;;;4376908;28;660564;-67
2022/10/21 04:34:24;;;;;;;27.77;11.33;;;0.60;99.90;;;;;;4371474;28;659931;-68
2022/10/21 04:37:13;;;;;;;22.40;11.47;;;0.50;99.90;;;;;;4351280;28;660237;-68
2022/10/21 04:40:00;;;;;;;25.35;12.15;;;0.50;99.90;;;;;;4348083;28;659562;-67
2022/10/21 04:42:48;;;;;;;25.80;13.00;;;0.50;99.90;;;;;;4367803;28;661139;-67
2022/10/21 04:45:39;;;;;;;25.27;11.37;;;0.60;99.90;;;;;;4354091;28;659782;-67
2022/10/21 04:48:29;;;;;;;31.77;13.00;;;0.50;99.90;;;;;;4350119;28;660433;-68
2022/10/21 04:51:17;;;;;;;33.77;12.87;;;0.40;99.90;;;;;;4352536;28;659596;-68
2022/10/21 04:54:05;;;;;;;30.90;12.57;;;0.40;99.90;;;;;;4364409;28;659633;-68
2022/10/21 04:57:00;;;;;;;27.03;11.57;;;0.30;99.90;;;;;;4342717;28;661191;-67
2022/10/21 04:59:51;;;;;;;25.40;12.17;;;0.40;99.90;;;;;;4326349;28;659938;-68
2022/10/21 05:02:39;;;;;;;30.20;11.90;;;0.40;99.90;;;;;;4347542;28;659994;-68
2022/10/21 05:05:29;;;;;;;27.53;11.70;;;0.40;99.90;;;;;;4351660;28;660764;-67
2022/10/21 05:08:17;;;;;;;23.40;11.60;;;0.40;99.90;;;;;;4348325;28;659793;-68
2022/10/21 05:11:05;;;;;;;21.73;10.70;;;0.40;99.90;;;;;;4363940;28;659513;-68
2022/10/21 05:13:53;;;;;;;25.57;11.23;;;0.40;99.90;;;;;;4342922;28;660777;-67
2022/10/21 05:16:40;;;;;;;28.80;11.10;;;0.50;99.90;;;;;;4359771;28;659696;-68
2022/10/21 05:19:27;;;;;;;26.40;11.47;;;0.50;99.90;;;;;;4376643;28;661140;-68
2022/10/21 05:22:14;;;;;;;28.83;11.27;;;0.60;99.90;;;;;;4375001;28;659699;-68
2022/10/21 05:25:02;;;;;;;27.80;11.77;;;0.60;99.90;;;;;;4351574;28;659767;-67
2022/10/21 05:27:50;;;;;;;27.03;12.30;;;0.70;99.90;;;;;;4369221;28;659834;-67
2022/10/21 05:30:37;;;;;;;28.93;12.90;;;0.70;99.90;;;;;;4350932;28;660716;-67
2022/10/21 05:33:24;;;;;;;34.50;16.63;;;0.70;99.90;;;;;;4371710;28;659508;-68
2022/10/21 05:36:12;;;;;;;31.47;13.93;;;0.80;99.90;;;;;;4352086;28;661400;-68
2022/10/21 05:38:59;;;;;;;27.30;12.27;;;0.90;99.90;;;;;;4370199;28;659809;-68
2022/10/21 05:41:46;;;;;;;31.27;14.10;;;1.00;99.90;;;;;;4346518;28;660094;-68
2022/10/21 05:44:34;;;;;;;34.50;15.10;;;1.10;99.90;;;;;;4369828;28;661192;-68
2022/10/21 05:47:22;;;;;;;32.43;12.73;;;1.20;99.90;;;;;;4349089;28;661426;-67
2022/10/21 05:50:10;;;;;;;23.67;11.53;;;1.20;99.90;;;;;;4367202;28;659527;-67
2022/10/21 05:52:58;;;;;;;31.43;13.87;;;1.30;99.90;;;;;;4364844;28;661217;-68
2022/10/21 05:55:45;;;;;;;30.07;13.47;;;1.40;99.90;;;;;;4356398;28;660269;-67
2022/10/21 05:58:33;;;;;;;33.03;17.13;;;1.60;99.90;;;;;;4377573;28;660333;-67
2022/10/21 06:01:22;;;;;;;34.50;17.03;;;1.70;99.90;;;;;;4363789;28;660151;-67
2022/10/21 06:04:09;;;;;;;35.37;15.93;;;1.90;99.90;;;;;;4370551;28;660162;-68
2022/10/21 06:06:56;;;;;;;33.93;16.83;;;1.90;99.90;;;;;;4351507;28;659541;-67
2022/10/21 06:09:44;;;;;;;31.40;16.57;;;2.20;99.90;;;;;;4367667;28;660442;-67
2022/10/21 06:12:31;;;;;;;35.47;17.47;;;2.30;99.90;;;;;;4349065;28;660057;-67
2022/10/21 06:15:18;;;;;;;30.83;15.67;;;2.60;99.90;;;;;;4370989;28;660109;-68
2022/10/21 06:18:07;;;;;;;35.92;16.70;;;2.60;99.90;;;;;;4349165;28;661272;-67
2022/10/21 06:20:54;;;;;;;38.57;15.37;;;2.70;99.90;;;;;;4367678;28;659760;-67
2022/10/21 06:23:41;;;;;;;24.63;12.90;;;2.90;99.90;;;;;;4346435;28;660530;-67
2022/10/21 06:26:28;;;;;;;26.93;12.63;;;3.00;99.90;;;;;;4365076;28;660683;-67
2022/10/21 06:29:16;;;;;;;24.13;12.87;;;3.10;99.90;;;;;;4348105;28;659630;-67
2022/10/21 06:32:03;;;;;;;27.87;12.93;;;3.20;99.90;;;;;;4366343;28;660653;-67
2022/10/21 06:34:52;;;;;;;28.37;13.80;;;3.30;99.90;;;;;;4347038;28;659706;-68
2022/10/21 06:37:39;;;;;;;23.40;12.87;;;3.50;99.90;;;;;;4363493;28;659768;-67
2022/10/21 06:40:26;;;;;;;34.28;16.02;;;3.60;99.90;;;;;;4345510;28;659631;-67
2022/10/21 06:43:13;;;;;;;35.87;15.37;;;3.70;99.90;;;;;;4368602;28;660789;-68
2022/10/21 06:46:01;;;;;;;36.20;16.20;;;3.70;99.90;;;;;;4342672;28;660072;-68
2022/10/21 06:48:48;;;;;;;27.90;15.40;;;3.70;99.90;;;;;;4364224;28;660303;-67
2022/10/21 06:51:37;;;;;;;33.50;17.20;;;3.60;99.90;;;;;;4344652;28;659703;-68
2022/10/21 06:54:24;;;;;;;38.17;16.97;;;3.60;99.90;;;;;;4363141;28;659688;-67
2022/10/21 06:57:11;;;;;;;36.13;18.70;;;3.70;99.90;;;;;;4344941;28;659556;-68
2022/10/21 06:59:58;;;;;;;36.73;17.73;;;3.80;99.90;;;;;;4368323;28;660761;-67
2022/10/21 07:02:45;;;;;;;39.20;18.92;;;3.90;99.90;;;;;;4344355;28;659717;-68
2022/10/21 07:05:32;;;;;;;33.97;16.87;;;4.00;99.90;;;;;;4367316;28;660613;-68
2022/10/21 07:08:21;;;;;;;33.37;15.70;;;4.10;99.90;;;;;;4363297;28;659792;-68
2022/10/21 07:11:08;;;;;;;34.30;16.80;;;4.20;99.90;;;;;;4345943;28;660347;-68
2022/10/21 07:13:56;;;;;;;40.20;19.53;;;4.40;99.90;;;;;;4339685;28;659968;-68
2022/10/21 07:16:43;;;;;;;35.33;19.27;;;4.70;99.90;;;;;;4366330;28;660381;-68
2022/10/21 07:19:30;;;;;;;40.97;22.35;;;5.00;99.90;;;;;;4351824;28;659669;-68
2022/10/21 07:22:17;;;;;;;36.07;19.77;;;5.40;99.90;;;;;;4369819;28;659324;-68
2022/10/21 07:25:07;;;;;;;44.73;22.40;;;5.70;99.90;;;;;;4360228;28;660242;-68
2022/10/21 07:27:54;;;;;;;37.80;19.13;;;5.90;99.90;;;;;;4340446;28;659788;-68
2022/10/21 07:30:41;;;;;;;28.80;14.73;;;6.00;99.90;;;;;;4340574;28;659825;-68
2022/10/21 07:33:28;;;;;;;25.70;13.47;;;6.10;99.90;;;;;;4363083;28;660744;-68
2022/10/21 07:36:17;;;;;;;29.93;13.73;;;6.50;99.90;;;;;;4347191;28;659981;-68
2022/10/21 07:39:07;;;;;;;27.33;13.53;;;6.90;99.90;;;;;;4367978;28;659647;-68
2022/10/21 07:41:56;;;;;;;26.77;13.20;;;7.40;99.90;;;;;;4338635;28;659764;-68
2022/10/21 07:44:43;;;;;;;26.60;13.87;;;7.80;99.90;;;;;;4341708;28;660242;-68
2022/10/21 07:47:30;;;;;;;27.40;13.97;;;8.40;99.90;;;;;;4339204;28;659575;-68
2022/10/21 07:50:18;;;;;;;23.70;11.97;;;8.90;99.90;;;;;;4366305;28;660063;-68
2022/10/21 07:53:05;;;;;;;22.20;8.07;;;9.50;99.90;;;;;;4357660;28;659687;-68
2022/10/21 07:56:02;;;;;;;13.07;7.60;;;10.00;99.90;;;;;;4366139;28;658873;-69
2022/10/21 07:58:50;;;;;;;12.60;6.90;;;10.40;99.90;;;;;;4341168;28;659904;-69
2022/10/21 08:01:39;;;;;;;12.67;6.20;;;10.50;99.90;;;;;;4342498;28;660552;-68
2022/10/21 08:04:28;;;;;;;16.47;8.53;;;10.40;99.90;;;;;;4346987;28;659396;-68
2022/10/21 08:07:15;;;;;;;14.67;7.77;;;10.50;99.90;;;;;;4349901;28;659714;-68
2022/10/21 08:10:03;;;;;;;14.47;7.40;;;10.40;99.90;;;;;;4369146;28;660815;-68
2022/10/21 08:12:50;;;;;;;12.90;6.93;;;10.60;99.90;;;;;;4349105;28;659501;-68
2022/10/21 08:15:41;;;;;;;16.37;8.27;;;10.70;96.70;;;;;;4371737;28;660095;-68
2022/10/21 08:18:29;;;;;;;20.17;10.23;;;10.40;99.90;;;;;;4342286;28;659841;-68
2022/10/21 08:21:16;;;;;;;15.43;9.53;;;10.60;99.90;;;;;;4346385;28;660668;-68
2022/10/21 08:24:03;;;;;;;19.73;8.10;;;10.60;99.90;;;;;;4369419;28;661008;-68
2022/10/21 08:26:51;;;;;;;16.77;9.60;;;10.60;99.90;;;;;;4348662;28;660087;-68
2022/10/21 08:29:38;;;;;;;18.07;8.87;;;10.40;99.90;;;;;;4368584;28;662164;-68
2022/10/21 08:32:27;;;;;;;18.50;9.53;;;10.60;99.90;;;;;;4351906;28;659317;-68
2022/10/21 08:35:14;;;;;;;14.87;9.37;;;10.70;99.90;;;;;;4367175;28;659909;-68
2022/10/21 08:38:01;;;;;;;16.00;10.90;;;10.80;99.70;;;;;;4339703;28;660422;-68
2022/10/21 08:40:48;;;;;;;21.73;11.80;;;10.60;99.90;;;;;;4368139;28;661436;-68
2022/10/21 08:43:36;;;;;;;27.17;12.07;;;10.80;99.90;;;;;;4348643;28;660791;-68
2022/10/21 08:46:26;;;;;;;21.30;12.00;;;10.80;99.90;;;;;;4357408;28;661949;-68
2022/10/21 08:49:17;;;;;;;24.83;12.53;;;10.80;99.90;;;;;;4338814;28;661642;-68
2022/10/21 08:52:05;;;;;;;22.10;11.57;;;10.90;99.90;;;;;;4340995;28;661133;-68
2022/10/21 08:54:55;;;;;;;23.13;11.50;;;10.80;99.90;;;;;;4343672;28;661299;-68
2022/10/21 08:57:42;;;;;;;24.03;11.87;;;10.50;99.90;;;;;;4342909;28;661380;-68
2022/10/21 09:00:32;;;;;;;25.53;12.27;;;10.50;99.90;;;;;;4369399;28;661068;-68
2022/10/21 09:03:23;;;;;;;23.67;11.33;;;10.70;99.90;;;;;;4340241;28;660595;-68
2022/10/21 09:06:19;;;;;;;29.90;11.97;;;10.60;99.90;;;;;;4320521;28;660685;-68
2022/10/21 09:09:10;;;;;;;22.37;10.70;;;10.90;99.90;;;;;;4322347;28;660949;-68
2022/10/21 09:12:00;;;;;;;15.60;8.43;;;11.00;99.90;;;;;;4335527;28;662512;-68
2022/10/21 09:15:00;;;;;;;19.07;8.07;;;11.00;98.50;;;;;;4341504;28;660671;-68
2022/10/21 09:17:55;;;;;;;17.20;8.70;;;10.90;97.70;;;;;;4349344;28;659623;-68
2022/10/21 09:20:48;;;;;;;12.30;6.77;;;10.80;98.80;;;;;;4325889;28;660255;-68
2022/10/21 09:23:42;;;;;;;10.80;6.50;;;11.00;97.40;;;;;;4325265;28;659570;-68
2022/10/21 09:26:37;;;;;;;16.60;7.27;;;11.20;96.50;;;;;;4340813;28;659472;-69
2022/10/21 09:29:26;;;;;;;15.40;7.70;;;11.30;94.90;;;;;;4345620;28;659316;-68
2022/10/21 09:32:14;;;;;;;15.97;7.10;;;11.20;94.90;;;;;;4343531;28;660958;-69
2022/10/21 09:35:05;;;;;;;13.37;7.23;;;11.10;96.00;;;;;;4348515;28;660036;-68
2022/10/21 09:37:53;;;;;;;14.97;7.93;;;11.00;95.30;;;;;;4346857;28;660670;-68
2022/10/21 09:40:42;;;;;;;14.47;6.80;;;11.00;95.80;;;;;;4349887;28;659893;-68
2022/10/21 09:43:29;;;;;;;11.80;6.40;;;10.80;95.90;;;;;;4367064;28;659336;-68
2022/10/21 09:46:17;;;;;;;13.70;7.20;;;10.80;97.30;;;;;;4350098;28;659707;-69
2022/10/21 09:49:04;;;;;;;19.10;7.20;;;10.80;99.20;;;;;;4371385;28;658692;-68
2022/10/21 09:51:51;;;;;;;13.57;6.87;;;10.90;96.30;;;;;;4348371;28;659635;-69
2022/10/21 09:54:40;;;;;;;16.50;7.40;;;10.90;96.90;;;;;;4365534;28;660357;-68
2022/10/21 09:57:39;;;;;;;14.73;7.03;;;11.00;95.70;;;;;;4349143;28;661081;-68
2022/10/21 10:00:44;;;;;;;13.73;6.97;;;11.00;94.70;;;;;;4326979;28;660132;-68
2022/10/21 10:03:32;;;;;;;10.85;6.03;;;11.00;94.00;;;;;;4322240;28;660946;-68
2022/10/21 10:06:31;;;;;;;11.10;6.47;;;11.10;92.90;;;;;;4366386;28;659768;-68
2022/10/21 10:09:25;;;;;;;11.20;6.50;;;11.00;92.80;;;;;;4344151;28;659928;-68
2022/10/21 10:12:13;;;;;;;13.23;6.33;;;11.20;93.00;;;;;;4325905;28;660670;-68
2022/10/21 10:15:21;;;;;;;10.73;6.17;;;11.30;91.50;;;;;;4344275;28;659583;-69
2022/10/21 10:18:19;;;;;;;13.27;6.80;;;11.20;92.40;;;;;;4345943;28;660305;-68
2022/10/21 10:21:08;;;;;;;12.03;5.87;;;11.40;93.30;;;;;;4325130;28;660233;-68
2022/10/21 10:23:56;;;;;;;12.20;6.03;;;11.50;92.10;;;;;;4350769;28;661692;-68
2022/10/21 10:26:43;;;;;;;10.50;6.13;;;11.50;88.30;;;;;;4368295;28;661732;-68
2022/10/21 10:29:30;;;;;;;11.90;6.07;;;11.60;90.30;;;;;;4348222;28;659198;-68
2022/10/21 10:32:19;;;;;;;9.63;6.07;;;11.50;88.60;;;;;;4367701;28;661409;-68
2022/10/21 10:35:08;;;;;;;13.15;6.55;;;11.40;90.40;;;;;;4343293;28;658570;-68
2022/10/21 10:37:57;;;;;;;13.60;6.53;;;11.30;88.40;;;;;;4348565;28;660063;-68
2022/10/21 10:40:44;;;;;;;12.67;6.27;;;11.40;90.00;;;;;;4362494;28;660742;-68
2022/10/21 10:43:32;;;;;;;9.18;5.85;;;11.10;90.80;;;;;;4350234;28;659384;-68
2022/10/21 10:46:23;;;;;;;12.23;5.67;;;11.20;90.20;;;;;;4368789;28;658415;-68
2022/10/21 10:49:21;;;;;;;13.70;6.07;;;11.30;86.60;;;;;;4334278;28;659763;-68
2022/10/21 10:52:20;;;;;;;10.50;5.77;;;11.20;88.00;;;;;;4345177;28;660337;-68
2022/10/21 10:55:15;;;;;;;15.07;7.00;;;11.30;89.30;;;;;;4343077;28;660582;-68
2022/10/21 10:58:02;;;;;;;13.47;5.80;;;11.30;90.40;;;;;;4327148;28;661446;-68
2022/10/21 11:00:50;;;;;;;12.68;6.47;;;11.30;83.90;;;;;;4364405;28;659460;-68
2022/10/21 11:03:41;;;;;;;17.60;7.20;;;11.20;89.60;;;;;;4348990;28;660267;-68
2022/10/21 11:06:34;;;;;;;14.83;6.80;;;11.20;90.30;;;;;;4349456;28;661076;-68
2022/10/21 11:09:21;;;;;;;13.93;7.00;;;11.30;88.40;;;;;;4348238;28;659536;-68
2022/10/21 11:12:14;;;;;;;13.60;6.80;;;11.40;86.50;;;;;;4370254;28;660687;-68
2022/10/21 11:15:01;;;;;;;12.50;5.70;;;11.50;84.90;;;;;;4325873;28;660349;-68
2022/10/21 11:17:53;;;;;;;12.10;5.67;;;11.60;86.40;;;;;;4370460;28;660592;-68
2022/10/21 11:20:41;;;;;;;10.23;5.83;;;11.70;85.10;;;;;;4333280;28;659573;-68
2022/10/21 11:23:43;;;;;;;10.27;5.60;;;11.80;86.10;;;;;;4369743;28;660409;-69
2022/10/21 11:26:33;;;;;;;15.70;7.20;;;12.10;86.40;;;;;;4351647;28;660893;-68
2022/10/21 11:29:30;;;;;;;14.10;7.33;;;12.30;81.50;;;;;;4348164;28;659773;-69
2022/10/21 11:32:25;;;;;;;18.10;7.63;;;12.60;81.30;;;;;;4326679;28;661143;-69
2022/10/21 11:35:25;;;;;;;17.87;7.70;;;12.60;83.30;;;;;;4333200;28;660294;-69
2022/10/21 11:38:27;;;;;;;17.50;7.90;;;12.70;81.50;;;;;;4340296;28;661461;-69
2022/10/21 11:41:23;;;;;;;21.53;8.30;;;12.70;85.40;;;;;;4348255;28;659627;-68
2022/10/21 11:44:15;;;;;;;18.77;8.63;;;12.70;82.40;;;;;;4328633;28;659940;-69
2022/10/21 11:47:06;;;;;;;21.83;8.50;;;12.60;83.10;;;;;;4348173;28;660996;-69
2022/10/21 11:49:56;;;;;;;20.63;8.10;;;12.60;84.10;;;;;;4345919;28;659716;-69
2022/10/21 11:52:46;;;;;;;14.93;7.80;;;12.60;84.70;;;;;;4343950;28;660926;-69
2022/10/21 11:55:38;;;;;;;16.97;8.00;;;12.50;82.80;;;;;;4346318;28;659549;-69
2022/10/21 11:58:32;;;;;;;19.87;7.93;;;12.40;86.20;;;;;;4333227;28;660170;-69
2022/10/21 12:01:28;;;;;;;21.47;9.23;;;12.20;83.80;;;;;;4346952;28;660055;-69
2022/10/21 12:04:24;;;;;;;23.43;9.47;;;12.40;86.20;;;;;;4328507;28;659620;-69
2022/10/21 12:07:22;;;;;;;16.23;8.70;;;12.70;84.60;;;;;;4344921;28;660351;-69
2022/10/21 12:10:12;;;;;;;17.03;8.70;;;13.20;86.10;;;;;;4346658;28;660790;-69
2022/10/21 12:13:01;;;;;;;19.47;9.00;;;13.20;83.60;;;;;;4351142;28;659903;-69
2022/10/21 12:15:50;;;;;;;19.77;8.57;;;13.30;83.00;;;;;;4345242;28;660391;-69
2022/10/21 12:18:41;;;;;;;17.90;7.83;;;13.50;83.00;;;;;;4347619;28;661716;-68
2022/10/21 12:21:30;;;;;;;22.53;8.37;;;13.70;81.20;;;;;;4342445;28;660344;-69
2022/10/21 12:24:25;;;;;;;17.40;8.30;;;14.30;82.20;;;;;;4352283;28;660006;-69
2022/10/21 12:27:17;;;;;;;16.00;8.33;;;15.10;77.30;;;;;;4329085;28;659777;-69
2022/10/21 12:30:09;;;;;;;17.67;8.00;;;15.40;74.90;;;;;;4347165;28;659919;-69
2022/10/21 12:33:08;;;;;;;16.77;7.87;;;15.80;74.10;;;;;;4350501;28;659837;-69
2022/10/21 12:35:57;;;;;;;17.20;8.47;;;15.80;71.10;;;;;;4316131;28;659813;-69
2022/10/21 12:38:45;;;;;;;19.73;8.17;;;15.90;70.20;;;;;;4367740;28;659491;-69
2022/10/21 12:41:33;;;;;;;15.90;8.17;;;16.30;68.90;;;;;;4342060;28;661370;-69
2022/10/21 12:44:24;;;;;;;13.93;7.80;;;16.10;70.50;;;;;;4348348;28;660002;-69
2022/10/21 12:47:23;;;;;;;21.77;10.27;;;16.10;69.80;;;;;;4346001;28;660846;-69
2022/10/21 12:50:24;;;;;;;25.00;10.83;;;16.50;68.50;;;;;;4323378;28;661980;-69
2022/10/21 12:53:25;;;;;;;21.57;9.80;;;16.80;67.40;;;;;;4323437;28;661625;-69
2022/10/21 12:56:12;;;;;;;18.00;9.37;;;17.00;65.40;;;;;;4327361;28;659852;-69
2022/10/21 12:59:01;;;;;;;18.60;8.10;;;16.60;67.60;;;;;;4366163;28;659542;-69
2022/10/21 13:02:09;;;;;;;22.63;9.17;;;16.20;66.70;;;;;;4345094;28;659966;-69
2022/10/21 13:04:57;;;;;;;14.60;8.20;;;15.80;67.40;;;;;;4349190;28;660650;-69
2022/10/21 13:08:14;;;;;;;16.03;8.60;;;15.40;69.70;;;;;;4366878;28;659691;-69
2022/10/21 13:11:21;;;;;;;17.47;8.77;;;15.20;71.60;;;;;;4324924;28;660399;-69
2022/10/21 13:14:28;;;;;;;20.93;9.00;;;15.30;71.90;;;;;;4345870;28;660673;-69
2022/10/21 13:17:45;;;;;;;22.87;10.20;;;15.50;72.80;;;;;;4339049;28;659753;-69
2022/10/21 13:20:56;;;;;;;20.00;10.10;;;15.60;73.80;;;;;;4324746;28;661857;-68
2022/10/21 13:23:45;;;;;;;20.40;10.03;;;15.40;73.10;;;;;;4345632;28;661784;-68
2022/10/21 13:26:32;;;;;;;25.40;10.53;;;15.20;73.20;;;;;;4344490;28;662656;-69
2022/10/21 13:29:41;;;;;;;21.50;10.33;;;14.90;74.40;;;;;;4366507;28;661344;-69
2022/10/21 13:32:30;;;;;;;20.27;10.20;;;14.50;76.10;;;;;;4346940;28;661010;-69
2022/10/21 13:35:30;;;;;;;19.50;9.40;;;14.50;77.50;;;;;;4348761;28;661853;-69
2022/10/21 13:38:21;;;;;;;25.87;10.27;;;14.30;79.00;;;;;;4325480;28;660634;-69
2022/10/21 13:41:20;;;;;;;27.47;10.57;;;14.20;80.20;;;;;;4344012;28;661377;-69
2022/10/21 13:44:07;;;;;;;28.40;11.83;;;14.10;82.60;;;;;;4325918;28;661078;-68
2022/10/21 13:46:54;;;;;;;28.47;11.10;;;14.00;82.40;;;;;;4367044;28;661551;-69
2022/10/21 13:49:41;;;;;;;25.03;10.70;;;13.90;83.40;;;;;;4347006;28;660748;-69
2022/10/21 13:52:29;;;;;;;22.33;11.47;;;13.90;84.40;;;;;;4368424;28;660781;-69
2022/10/21 13:55:20;;;;;;;27.33;11.23;;;13.80;87.30;;;;;;4347375;28;660814;-70
2022/10/21 13:58:15;;;;;;;26.65;11.70;;;13.60;90.30;;;;;;4350425;28;661769;-70
2022/10/21 14:01:08;;;;;;;28.53;12.77;;;13.60;90.40;;;;;;4343430;28;661724;-70
2022/10/21 14:03:56;;;;;;;40.17;16.57;;;13.60;89.90;;;;;;4337393;28;660541;-69
2022/10/21 14:06:46;;;;;;;33.20;15.93;;;13.60;89.30;;;;;;4353902;28;661577;-70
2022/10/21 14:09:34;;;;;;;36.73;15.30;;;13.50;90.80;;;;;;4337867;28;662763;-69
2022/10/21 14:12:23;;;;;;;28.73;14.13;;;13.50;90.70;;;;;;4343418;28;660519;-69
2022/10/21 14:15:16;;;;;;;36.40;14.90;;;13.40;91.80;;;;;;4349571;28;661009;-69
2022/10/21 14:18:04;;;;;;;28.67;14.53;;;13.10;93.90;;;;;;4350096;28;662080;-70
2022/10/21 14:20:52;;;;;;;29.90;13.57;;;12.90;96.70;;;;;;4345818;28;660499;-70